createdAt,value
2022-10-05T00:00:38.829Z,91.89
2022-10-05T00:01:38.823Z,91.90
2022-10-05T00:02:38.766Z,91.90
2022-10-05T00:03:38.812Z,91.89
2022-10-05T00:04:38.767Z,91.91
2022-10-05T00:05:38.738Z,91.93
2022-10-05T00:06:38.723Z,91.95
2022-10-05T00:07:38.710Z,91.96
2022-10-05T00:08:38.696Z,91.96
2022-10-05T00:09:38.708Z,91.98
2022-10-05T00:10:38.697Z,91.97
2022-10-05T00:11:38.659Z,92.00
2022-10-05T00:12:38.646Z,91.99
2022-10-05T00:13:38.648Z,91.97
2022-10-05T00:14:38.677Z,91.96
2022-10-05T00:15:38.615Z,91.95
2022-10-05T00:16:38.644Z,91.94
2022-10-05T00:17:38.596Z,91.93
2022-10-05T00:18:38.601Z,91.91
2022-10-05T00:19:38.582Z,91.90
2022-10-05T00:20:38.547Z,91.91
2022-10-05T00:21:38.545Z,91.92
2022-10-05T00:22:38.515Z,91.92
2022-10-05T00:23:38.503Z,91.93
2022-10-05T00:24:38.515Z,91.93
2022-10-05T00:25:38.512Z,91.93
2022-10-05T00:26:38.483Z,91.93
2022-10-05T00:27:38.454Z,91.95
2022-10-05T00:28:38.562Z,91.97
2022-10-05T00:29:38.483Z,91.98
2022-10-05T00:30:38.443Z,91.98
2022-10-05T00:31:38.511Z,91.99
2022-10-05T00:32:38.414Z,92.00
2022-10-05T00:33:38.397Z,91.99
2022-10-05T00:34:38.402Z,91.96
2022-10-05T00:35:38.417Z,91.98
2022-10-05T00:36:38.366Z,91.97
2022-10-05T00:37:38.352Z,91.99
2022-10-05T00:38:38.364Z,92.00
2022-10-05T00:39:38.330Z,92.00
2022-10-05T00:40:38.342Z,92.03
2022-10-05T00:41:38.317Z,92.03
2022-10-05T00:42:38.285Z,92.02
2022-10-05T00:43:38.276Z,92.01
2022-10-05T00:44:38.276Z,92.02
2022-10-05T00:45:38.279Z,92.01
2022-10-05T00:46:38.267Z,92.03
2022-10-05T00:47:38.223Z,92.06
2022-10-05T00:48:38.227Z,92.07
2022-10-05T00:49:38.202Z,92.10
2022-10-05T00:50:38.255Z,92.11
2022-10-05T00:51:38.230Z,92.14
2022-10-05T00:52:38.237Z,92.21
2022-10-05T00:53:38.166Z,92.27
2022-10-05T00:54:38.195Z,92.32
2022-10-05T00:55:38.156Z,92.36
2022-10-05T00:56:38.182Z,92.36
2022-10-05T00:57:38.153Z,92.37
2022-10-05T00:58:38.098Z,92.42
2022-10-05T00:59:38.081Z,92.44
2022-10-05T01:00:38.097Z,92.47
2022-10-05T01:01:38.100Z,92.45
2022-10-05T01:02:38.142Z,92.48
2022-10-05T01:03:38.057Z,92.50
2022-10-05T01:04:38.041Z,92.50
2022-10-05T01:05:38.018Z,92.52
2022-10-05T01:06:38.011Z,92.54
2022-10-05T01:07:38.049Z,92.58
2022-10-05T01:08:38.020Z,92.59
2022-10-05T01:09:37.970Z,92.60
2022-10-05T01:10:37.967Z,92.59
2022-10-05T01:11:37.948Z,92.60
2022-10-05T01:12:37.967Z,92.62
2022-10-05T01:13:37.932Z,92.65
2022-10-05T01:14:37.914Z,92.69
2022-10-05T01:15:37.903Z,92.73
2022-10-05T01:16:37.945Z,92.77
2022-10-05T01:17:37.909Z,92.81
2022-10-05T01:18:37.911Z,92.83
2022-10-05T01:19:37.870Z,92.86
2022-10-05T01:20:37.858Z,92.90
2022-10-05T01:21:37.830Z,92.92
2022-10-05T01:22:37.816Z,92.92
2022-10-05T01:23:37.807Z,92.95
2022-10-05T01:24:37.832Z,92.98
2022-10-05T01:25:37.796Z,92.98
2022-10-05T01:26:37.802Z,92.97
2022-10-05T01:27:37.774Z,92.97
2022-10-05T01:28:37.863Z,92.95
2022-10-05T01:29:37.742Z,92.96
2022-10-05T01:30:37.781Z,92.95
2022-10-05T01:31:37.744Z,92.93
2022-10-05T01:32:37.722Z,92.92
2022-10-05T01:33:37.712Z,92.89
2022-10-05T01:34:37.705Z,92.90
2022-10-05T01:35:37.725Z,92.90
2022-10-05T01:36:37.711Z,92.88
2022-10-05T01:37:37.652Z,92.87
2022-10-05T01:38:37.673Z,92.86
2022-10-05T01:39:37.645Z,92.85
2022-10-05T01:40:37.678Z,92.84
2022-10-05T01:41:37.626Z,92.84
2022-10-05T01:42:37.606Z,92.84
2022-10-05T01:43:37.604Z,92.83
2022-10-05T01:44:37.592Z,92.82
2022-10-05T01:45:37.631Z,92.83
2022-10-05T01:46:37.563Z,92.83
2022-10-05T01:47:37.563Z,92.83
2022-10-05T01:48:37.540Z,92.82
2022-10-05T01:49:37.519Z,92.80
2022-10-05T01:50:37.537Z,92.79
2022-10-05T01:51:37.513Z,92.78
2022-10-05T01:52:37.479Z,92.78
2022-10-05T01:53:37.471Z,92.78
2022-10-05T01:54:37.469Z,92.77
2022-10-05T01:55:37.442Z,92.77
2022-10-05T01:56:37.731Z,92.74
2022-10-05T01:57:37.450Z,92.72
2022-10-05T01:58:37.404Z,92.71
2022-10-05T01:59:37.405Z,92.73
2022-10-05T02:00:37.454Z,92.73
2022-10-05T02:01:37.441Z,92.72
2022-10-05T02:02:37.454Z,92.73
2022-10-05T02:03:37.371Z,92.73
2022-10-05T02:05:01.107Z,92.75
2022-10-05T02:05:38.337Z,92.73
2022-10-05T02:06:37.331Z,92.74
2022-10-05T02:07:37.304Z,92.73
2022-10-05T02:08:37.298Z,92.76
2022-10-05T02:09:37.283Z,92.76
2022-10-05T02:10:37.285Z,92.76
2022-10-05T02:11:37.263Z,92.75
2022-10-05T02:12:37.244Z,92.77
2022-10-05T02:13:37.246Z,92.77
2022-10-05T02:14:37.234Z,92.76
2022-10-05T02:15:37.283Z,92.76
2022-10-05T02:16:37.233Z,92.78
2022-10-05T02:17:37.201Z,92.80
2022-10-05T02:18:37.193Z,92.79
2022-10-05T02:19:37.174Z,92.79
2022-10-05T02:20:37.158Z,92.78
2022-10-05T02:21:37.154Z,92.77
2022-10-05T02:22:37.140Z,92.77
2022-10-05T02:23:37.125Z,92.77
2022-10-05T02:24:37.126Z,92.78
2022-10-05T02:25:37.105Z,92.78
2022-10-05T02:26:37.144Z,92.76
2022-10-05T02:27:37.093Z,92.75
2022-10-05T02:28:37.108Z,92.76
2022-10-05T02:29:37.066Z,92.76
2022-10-05T02:30:37.045Z,92.75
2022-10-05T02:31:37.069Z,92.75
2022-10-05T02:32:37.057Z,92.73
2022-10-05T02:33:37.029Z,92.74
2022-10-05T02:34:36.998Z,92.72
2022-10-05T02:35:36.978Z,92.67
2022-10-05T02:36:36.996Z,92.68
2022-10-05T02:37:36.965Z,92.64
2022-10-05T02:38:36.943Z,92.63
2022-10-05T02:39:36.944Z,92.59
2022-10-05T02:40:36.937Z,92.60
2022-10-05T02:41:36.916Z,92.63
2022-10-05T02:42:36.946Z,92.63
2022-10-05T02:43:36.889Z,92.59
2022-10-05T02:44:36.874Z,92.58
2022-10-05T02:45:36.917Z,92.58
2022-10-05T02:46:36.874Z,92.60
2022-10-05T02:47:36.871Z,92.57
2022-10-05T02:48:36.851Z,92.52
2022-10-05T02:49:36.861Z,92.32
2022-10-05T02:50:36.838Z,92.31
2022-10-05T02:51:36.797Z,92.39
2022-10-05T02:52:36.825Z,92.31
2022-10-05T02:53:36.766Z,92.28
2022-10-05T02:54:36.795Z,92.33
2022-10-05T02:55:36.807Z,92.35
2022-10-05T02:56:36.756Z,92.27
2022-10-05T02:57:36.767Z,92.20
2022-10-05T02:58:36.749Z,92.15
2022-10-05T02:59:36.717Z,91.96
2022-10-05T03:00:36.723Z,91.91
2022-10-05T03:01:36.787Z,91.98
2022-10-05T03:02:36.688Z,92.05
2022-10-05T03:03:36.660Z,92.05
2022-10-05T03:04:36.655Z,92.00
2022-10-05T03:05:36.638Z,91.95
2022-10-05T03:06:36.616Z,91.94
2022-10-05T03:07:36.655Z,91.94
2022-10-05T03:08:36.627Z,91.78
2022-10-05T03:09:36.608Z,91.64
2022-10-05T03:10:36.590Z,91.62
2022-10-05T03:11:36.601Z,91.59
2022-10-05T03:12:36.614Z,91.67
2022-10-05T03:13:36.559Z,91.52
2022-10-05T03:14:36.547Z,91.45
2022-10-05T03:15:36.833Z,91.36
2022-10-05T03:16:36.512Z,91.32
2022-10-05T03:17:36.499Z,91.24
2022-10-05T03:18:36.544Z,91.16
2022-10-05T03:19:36.477Z,91.19
2022-10-05T03:20:36.462Z,91.29
2022-10-05T03:21:36.461Z,91.30
2022-10-05T03:22:36.438Z,91.36
2022-10-05T03:23:36.440Z,91.40
2022-10-05T03:24:36.440Z,91.40
2022-10-05T03:25:36.489Z,91.42
2022-10-05T03:26:36.404Z,91.44
2022-10-05T03:27:36.379Z,91.46
2022-10-05T03:28:36.448Z,91.50
2022-10-05T03:29:36.360Z,91.53
2022-10-05T03:30:36.383Z,91.55
2022-10-05T03:31:36.371Z,91.57
2022-10-05T03:32:36.329Z,91.62
2022-10-05T03:33:36.335Z,91.66
2022-10-05T03:34:36.349Z,91.68
2022-10-05T03:35:36.303Z,91.69
2022-10-05T03:36:36.317Z,91.69
2022-10-05T03:37:36.291Z,91.71
2022-10-05T03:38:36.268Z,91.71
2022-10-05T03:39:36.260Z,91.73
2022-10-05T03:40:36.243Z,91.72
2022-10-05T03:41:36.306Z,91.75
2022-10-05T03:42:36.217Z,91.76
2022-10-05T03:43:36.211Z,91.77
2022-10-05T03:44:36.242Z,91.79
2022-10-05T03:45:36.214Z,91.79
2022-10-05T03:46:36.256Z,91.79
2022-10-05T03:47:36.160Z,91.80
2022-10-05T03:48:36.142Z,91.82
2022-10-05T03:49:36.142Z,91.81
2022-10-05T03:50:36.147Z,91.81
2022-10-05T03:51:36.102Z,91.80
2022-10-05T03:52:36.108Z,91.79
2022-10-05T03:53:36.092Z,91.77
2022-10-05T03:54:36.110Z,91.71
2022-10-05T03:55:36.103Z,91.71
2022-10-05T03:56:36.062Z,91.74
2022-10-05T03:57:36.100Z,91.76
2022-10-05T03:58:36.040Z,91.87
2022-10-05T03:59:36.040Z,91.92
2022-10-05T04:00:36.060Z,91.97
2022-10-05T04:01:36.070Z,91.97
2022-10-05T04:02:36.093Z,92.03
2022-10-05T04:03:35.990Z,92.07
2022-10-05T04:04:35.996Z,92.07
2022-10-05T04:05:35.990Z,92.10
2022-10-05T04:06:35.953Z,92.10
2022-10-05T04:07:35.951Z,92.11
2022-10-05T04:08:35.909Z,92.14
2022-10-05T04:09:35.913Z,92.14
2022-10-05T04:10:35.905Z,92.13
2022-10-05T04:11:35.925Z,92.15
2022-10-05T04:12:35.887Z,92.15
2022-10-05T04:13:35.902Z,92.14
2022-10-05T04:14:35.863Z,92.12
2022-10-05T04:15:35.879Z,92.12
2022-10-05T04:16:35.853Z,92.07
2022-10-05T04:17:35.845Z,92.05
2022-10-05T04:18:35.827Z,92.03
2022-10-05T04:19:35.787Z,92.00
2022-10-05T04:20:35.803Z,91.99
2022-10-05T04:21:35.805Z,91.93
2022-10-05T04:22:35.764Z,91.83
2022-10-05T04:23:35.786Z,91.81
2022-10-05T04:24:35.772Z,91.82
2022-10-05T04:25:35.734Z,91.78
2022-10-05T04:26:35.734Z,91.76
2022-10-05T04:27:35.722Z,91.73
2022-10-05T04:28:35.774Z,91.71
2022-10-05T04:29:35.674Z,91.65
2022-10-05T04:30:35.680Z,91.55
2022-10-05T04:31:35.748Z,91.53
2022-10-05T04:32:35.660Z,91.54
2022-10-05T04:33:35.654Z,91.52
2022-10-05T04:34:35.630Z,91.51
2022-10-05T04:35:35.634Z,91.51
2022-10-05T04:36:35.617Z,91.54
2022-10-05T04:37:35.627Z,91.53
2022-10-05T04:38:35.575Z,91.56
2022-10-05T04:39:35.561Z,91.68
2022-10-05T04:40:35.572Z,91.78
2022-10-05T04:41:35.577Z,91.79
2022-10-05T04:42:35.562Z,91.88
2022-10-05T04:43:35.546Z,91.95
2022-10-05T04:44:35.513Z,91.94
2022-10-05T04:45:35.515Z,91.98
2022-10-05T04:46:35.607Z,91.99
2022-10-05T04:47:35.475Z,91.98
2022-10-05T04:48:35.464Z,91.97
2022-10-05T04:49:35.465Z,91.98
2022-10-05T04:50:35.461Z,91.98
2022-10-05T04:51:35.445Z,91.98
2022-10-05T04:52:35.445Z,91.99
2022-10-05T04:53:35.426Z,92.00
2022-10-05T04:54:35.401Z,91.99
2022-10-05T04:55:35.415Z,92.00
2022-10-05T04:56:35.408Z,92.02
2022-10-05T04:57:35.404Z,92.06
2022-10-05T04:58:40.033Z,92.14
2022-10-05T04:59:36.365Z,92.23
2022-10-05T05:00:35.376Z,92.28
2022-10-05T05:01:35.319Z,92.33
2022-10-05T05:02:35.327Z,92.43
2022-10-05T05:03:35.346Z,92.54
2022-10-05T05:04:35.286Z,92.68
2022-10-05T05:05:35.276Z,92.80
2022-10-05T05:06:35.285Z,92.88
2022-10-05T05:07:35.258Z,93.00
2022-10-05T05:08:35.271Z,93.11
2022-10-05T05:09:35.251Z,93.23
2022-10-05T05:10:35.217Z,93.29
2022-10-05T05:11:35.206Z,93.35
2022-10-05T05:12:35.214Z,93.43
2022-10-05T05:13:35.210Z,93.52
2022-10-05T05:14:35.207Z,93.61
2022-10-05T05:15:35.190Z,93.75
2022-10-05T05:16:35.198Z,93.79
2022-10-05T05:17:35.152Z,93.82
2022-10-05T05:18:35.139Z,93.81
2022-10-05T05:19:35.126Z,93.81
2022-10-05T05:20:35.127Z,93.76
2022-10-05T05:21:35.108Z,93.71
2022-10-05T05:22:35.112Z,93.64
2022-10-05T05:23:35.086Z,93.57
2022-10-05T05:24:35.071Z,93.51
2022-10-05T05:25:35.132Z,93.42
2022-10-05T05:26:38.882Z,93.38
2022-10-05T05:27:35.018Z,93.38
2022-10-05T05:28:35.080Z,93.39
2022-10-05T05:29:35.010Z,93.41
2022-10-05T05:30:34.987Z,93.41
2022-10-05T05:31:35.069Z,93.42
2022-10-05T05:32:34.995Z,93.40
2022-10-05T05:33:34.966Z,93.37
2022-10-05T05:34:34.963Z,93.36
2022-10-05T05:35:34.957Z,93.35
2022-10-05T05:36:34.971Z,93.31
2022-10-05T05:37:34.928Z,93.29
2022-10-05T05:38:34.904Z,93.27
2022-10-05T05:39:34.900Z,93.25
2022-10-05T05:40:34.878Z,93.25
2022-10-05T05:41:34.899Z,93.24
2022-10-05T05:42:34.861Z,93.25
2022-10-05T05:43:34.849Z,93.25
2022-10-05T05:44:38.537Z,93.26
2022-10-05T05:45:34.849Z,93.27
2022-10-05T05:47:01.801Z,93.29
2022-10-05T05:47:35.822Z,93.28
2022-10-05T05:48:34.858Z,93.28
2022-10-05T05:49:34.829Z,93.28
2022-10-05T05:50:34.775Z,93.29
2022-10-05T05:51:34.781Z,93.28
2022-10-05T05:52:34.750Z,93.26
2022-10-05T05:53:34.743Z,93.22
2022-10-05T05:54:34.759Z,93.18
2022-10-05T05:55:34.734Z,93.17
2022-10-05T05:56:34.789Z,93.14
2022-10-05T05:57:34.730Z,93.13
2022-10-05T05:58:34.690Z,93.09
2022-10-05T05:59:34.681Z,93.08
2022-10-05T06:00:34.670Z,93.09
2022-10-05T06:01:34.692Z,93.09
2022-10-05T06:02:34.786Z,93.07
2022-10-05T06:03:34.637Z,93.05
2022-10-05T06:04:34.619Z,93.05
2022-10-05T06:05:34.608Z,92.98
2022-10-05T06:06:34.621Z,92.98
2022-10-05T06:07:34.616Z,92.95
2022-10-05T06:08:34.625Z,92.96
2022-10-05T06:09:34.566Z,92.95
2022-10-05T06:10:34.560Z,92.95
2022-10-05T06:11:34.541Z,92.94
2022-10-05T06:12:34.530Z,92.95
2022-10-05T06:13:34.578Z,92.95
2022-10-05T06:14:34.512Z,92.95
2022-10-05T06:15:34.503Z,92.96
2022-10-05T06:16:34.545Z,92.95
2022-10-05T06:17:34.505Z,92.99
2022-10-05T06:18:34.497Z,93.02
2022-10-05T06:19:34.452Z,93.03
2022-10-05T06:20:34.444Z,93.03
2022-10-05T06:21:34.430Z,93.03
2022-10-05T06:22:34.420Z,93.07
2022-10-05T06:23:34.432Z,93.07
2022-10-05T06:24:34.413Z,93.09
2022-10-05T06:25:34.382Z,93.09
2022-10-05T06:26:34.414Z,93.09
2022-10-05T06:27:34.374Z,93.11
2022-10-05T06:28:34.425Z,93.14
2022-10-05T06:29:34.375Z,93.11
2022-10-05T06:30:34.320Z,93.08
2022-10-05T06:31:34.401Z,93.07
2022-10-05T06:32:34.310Z,93.05
2022-10-05T06:33:34.284Z,93.04
2022-10-05T06:34:34.303Z,93.03
2022-10-05T06:35:34.292Z,92.98
2022-10-05T06:36:34.263Z,92.91
2022-10-05T06:37:34.262Z,92.87
2022-10-05T06:38:34.235Z,92.71
2022-10-05T06:39:34.223Z,92.65
2022-10-05T06:40:34.231Z,92.55
2022-10-05T06:41:34.204Z,92.41
2022-10-05T06:42:34.175Z,92.12
2022-10-05T06:43:34.174Z,92.00
2022-10-05T06:44:34.180Z,91.90
2022-10-05T06:45:34.285Z,91.71
2022-10-05T06:46:34.139Z,91.76
2022-10-05T06:47:34.142Z,91.71
2022-10-05T06:48:34.132Z,91.66
2022-10-05T06:49:34.094Z,91.65
2022-10-05T06:50:34.126Z,91.61
2022-10-05T06:51:34.111Z,91.51
2022-10-05T06:52:34.093Z,91.52
2022-10-05T06:53:34.056Z,91.43
2022-10-05T06:54:34.075Z,91.23
2022-10-05T06:55:34.038Z,91.10
2022-10-05T06:56:34.046Z,91.14
2022-10-05T06:57:33.994Z,91.16
2022-10-05T06:58:33.999Z,91.12
2022-10-05T06:59:33.968Z,91.12
2022-10-05T07:00:33.972Z,91.12
2022-10-05T07:01:34.040Z,91.20
2022-10-05T07:02:34.010Z,91.21
2022-10-05T07:03:33.926Z,91.22
2022-10-05T07:04:36.981Z,91.25
2022-10-05T07:05:33.916Z,91.26
2022-10-05T07:06:33.925Z,91.26
2022-10-05T07:07:33.906Z,91.02
2022-10-05T07:08:33.891Z,90.63
2022-10-05T07:09:33.875Z,90.07
2022-10-05T07:10:33.879Z,89.82
2022-10-05T07:11:33.851Z,89.30
2022-10-05T07:12:33.862Z,89.05
2022-10-05T07:13:33.816Z,88.81
2022-10-05T07:14:33.818Z,88.69
2022-10-05T07:15:33.793Z,88.44
2022-10-05T07:16:33.888Z,88.21
2022-10-05T07:17:33.790Z,88.03
2022-10-05T07:18:33.791Z,87.90
2022-10-05T07:19:33.809Z,87.69
2022-10-05T07:20:33.759Z,87.56
2022-10-05T07:21:33.723Z,87.52
2022-10-05T07:22:34.495Z,87.53
2022-10-05T07:23:33.747Z,87.47
2022-10-05T07:24:33.723Z,87.48
2022-10-05T07:25:33.687Z,87.44
2022-10-05T07:26:33.713Z,87.41
2022-10-05T07:27:33.785Z,87.47
2022-10-05T07:28:33.709Z,87.58
2022-10-05T07:29:33.667Z,87.53
2022-10-05T07:30:33.667Z,87.49
2022-10-05T07:31:33.621Z,87.58
2022-10-05T07:32:33.607Z,87.50
2022-10-05T07:33:33.583Z,87.59
2022-10-05T07:34:33.609Z,87.64
2022-10-05T07:35:33.584Z,87.69
2022-10-05T07:36:33.584Z,87.68
2022-10-05T07:37:33.550Z,87.67
2022-10-05T07:38:33.551Z,87.64
2022-10-05T07:39:58.433Z,87.70
2022-10-05T07:40:34.526Z,87.79
2022-10-05T07:41:33.511Z,87.93
2022-10-05T07:42:33.497Z,87.97
2022-10-05T07:43:57.474Z,87.71
2022-10-05T07:44:34.491Z,87.61
2022-10-05T07:45:33.522Z,87.57
2022-10-05T07:46:33.442Z,87.59
2022-10-05T07:47:33.431Z,87.62
2022-10-05T07:48:33.424Z,87.64
2022-10-05T07:49:33.428Z,87.59
2022-10-05T07:50:33.513Z,87.49
2022-10-05T07:51:33.387Z,87.25
2022-10-05T07:52:34.880Z,87.21
2022-10-05T07:53:33.370Z,87.17
2022-10-05T07:54:33.352Z,87.03
2022-10-05T07:55:33.341Z,86.93
2022-10-05T07:56:33.389Z,86.77
2022-10-05T07:57:33.321Z,86.73
2022-10-05T07:58:33.324Z,86.76
2022-10-05T07:59:33.307Z,86.85
2022-10-05T08:00:33.271Z,86.66
2022-10-05T08:01:33.353Z,86.59
2022-10-05T08:02:33.404Z,86.60
2022-10-05T08:03:33.245Z,86.56
2022-10-05T08:04:35.198Z,86.54
2022-10-05T08:05:33.229Z,86.56
2022-10-05T08:06:33.211Z,86.41
2022-10-05T08:07:33.212Z,86.47
2022-10-05T08:08:33.188Z,86.43
2022-10-05T08:09:33.190Z,86.39
2022-10-05T08:10:33.162Z,86.41
2022-10-05T08:11:33.155Z,86.27
2022-10-05T08:12:33.154Z,86.41
2022-10-05T08:13:33.153Z,86.51
2022-10-05T08:14:33.122Z,86.36
2022-10-05T08:15:33.202Z,86.34
2022-10-05T08:16:33.093Z,86.35
2022-10-05T08:17:33.071Z,86.08
2022-10-05T08:18:33.151Z,85.93
2022-10-05T08:19:33.089Z,85.76
2022-10-05T08:20:33.068Z,85.70
2022-10-05T08:21:33.040Z,85.66
2022-10-05T08:22:33.022Z,85.67
2022-10-05T08:23:33.034Z,85.66
2022-10-05T08:24:33.007Z,85.72
2022-10-05T08:25:33.043Z,85.54
2022-10-05T08:26:33.007Z,85.22
2022-10-05T08:27:32.951Z,85.21
2022-10-05T08:28:33.018Z,85.29
2022-10-05T08:29:32.986Z,85.05
2022-10-05T08:30:32.934Z,84.98
2022-10-05T08:31:33.010Z,84.93
2022-10-05T08:32:32.929Z,84.90
2022-10-05T08:33:32.904Z,84.85
2022-10-05T08:34:32.906Z,84.75
2022-10-05T08:35:32.874Z,84.82
2022-10-05T08:36:32.877Z,84.78
2022-10-05T08:37:32.870Z,84.58
2022-10-05T08:38:32.842Z,84.52
2022-10-05T08:39:32.827Z,84.63
2022-10-05T08:40:32.854Z,84.62
2022-10-05T08:41:32.833Z,84.31
2022-10-05T08:42:32.795Z,84.13
2022-10-05T08:43:35.343Z,84.20
2022-10-05T08:44:32.777Z,83.76
2022-10-05T08:45:32.779Z,83.62
2022-10-05T08:46:32.891Z,83.17
2022-10-05T08:47:32.739Z,83.00
2022-10-05T08:48:32.750Z,82.29
2022-10-05T08:49:35.179Z,81.20
2022-10-05T08:50:32.719Z,80.93
2022-10-05T08:51:32.727Z,80.92
2022-10-05T08:52:32.684Z,80.60
2022-10-05T08:53:32.675Z,80.74
2022-10-05T08:54:32.692Z,80.55
2022-10-05T08:55:32.648Z,80.34
2022-10-05T08:56:32.667Z,80.39
2022-10-05T08:57:32.643Z,80.39
2022-10-05T08:58:32.623Z,80.30
2022-10-05T08:59:32.615Z,80.10
2022-10-05T09:00:32.601Z,80.44
2022-10-05T09:01:32.610Z,80.10
2022-10-05T09:02:32.662Z,79.91
2022-10-05T09:03:34.569Z,80.02
2022-10-05T09:04:32.580Z,79.29
2022-10-05T09:05:32.553Z,79.28
2022-10-05T09:06:32.529Z,79.76
2022-10-05T09:07:35.501Z,79.37
2022-10-05T09:08:32.492Z,78.64
2022-10-05T09:09:32.549Z,78.07
2022-10-05T09:10:32.483Z,78.40
2022-10-05T09:11:32.470Z,78.72
2022-10-05T09:12:32.450Z,78.73
2022-10-05T09:13:32.464Z,78.58
2022-10-05T09:14:32.449Z,78.15
2022-10-05T09:15:32.437Z,77.57
2022-10-05T09:16:32.400Z,77.94
2022-10-05T09:17:35.900Z,78.08
2022-10-05T09:18:33.467Z,78.60
2022-10-05T09:19:32.381Z,78.13
2022-10-05T09:20:32.366Z,78.28
2022-10-05T09:21:32.338Z,77.71
2022-10-05T09:22:32.373Z,77.65
2022-10-05T09:23:32.412Z,77.92
2022-10-05T09:24:32.330Z,77.52
2022-10-05T09:25:32.304Z,77.58
2022-10-05T09:26:32.303Z,77.20
2022-10-05T09:27:32.298Z,77.43
2022-10-05T09:28:32.437Z,77.22
2022-10-05T09:29:32.241Z,77.27
2022-10-05T09:30:32.295Z,77.46
2022-10-05T09:31:32.308Z,77.32
2022-10-05T09:32:32.224Z,77.33
2022-10-05T09:33:32.235Z,77.49
2022-10-05T09:34:32.269Z,77.47
2022-10-05T09:35:32.183Z,77.67
2022-10-05T09:36:32.174Z,77.62
2022-10-05T09:37:32.166Z,77.80
2022-10-05T09:38:32.161Z,77.94
2022-10-05T09:39:32.162Z,77.82
2022-10-05T09:40:32.125Z,77.82
2022-10-05T09:41:32.114Z,77.42
2022-10-05T09:42:32.103Z,76.95
2022-10-05T09:43:32.093Z,77.10
2022-10-05T09:44:32.107Z,77.53
2022-10-05T09:45:32.075Z,77.25
2022-10-05T09:46:32.118Z,77.96
2022-10-05T09:47:32.059Z,77.33
2022-10-05T09:48:32.028Z,77.36
2022-10-05T09:49:32.036Z,77.51
2022-10-05T09:50:32.040Z,77.90
2022-10-05T09:51:32.019Z,77.62
2022-10-05T09:52:31.990Z,77.54
2022-10-05T09:53:31.976Z,77.65
2022-10-05T09:54:31.973Z,77.31
2022-10-05T09:55:31.990Z,77.00
2022-10-05T09:56:32.000Z,76.58
2022-10-05T09:57:31.931Z,76.98
2022-10-05T09:58:31.926Z,76.41
2022-10-05T09:59:31.920Z,76.41
2022-10-05T10:00:31.934Z,76.41
2022-10-05T10:01:34.245Z,76.21
2022-10-05T10:02:32.009Z,76.64
2022-10-05T10:03:31.899Z,76.70
2022-10-05T10:04:31.873Z,76.77
2022-10-05T10:05:31.854Z,76.34
2022-10-05T10:06:31.835Z,76.14
2022-10-05T10:07:31.821Z,76.55
2022-10-05T10:08:31.810Z,76.44
2022-10-05T10:09:35.198Z,76.87
2022-10-05T10:10:31.787Z,76.81
2022-10-05T10:11:31.794Z,77.06
2022-10-05T10:12:31.785Z,76.44
2022-10-05T10:13:31.753Z,76.95
2022-10-05T10:14:31.740Z,76.63
2022-10-05T10:15:31.791Z,76.82
2022-10-05T10:16:31.749Z,76.77
2022-10-05T10:17:31.719Z,77.20
2022-10-05T10:18:31.720Z,76.85
2022-10-05T10:19:31.713Z,77.27
2022-10-05T10:20:31.674Z,76.70
2022-10-05T10:21:31.687Z,77.10
2022-10-05T10:22:31.667Z,77.11
2022-10-05T10:23:31.646Z,76.87
2022-10-05T10:24:31.677Z,77.09
2022-10-05T10:25:31.606Z,77.19
2022-10-05T10:26:31.621Z,77.20
2022-10-05T10:27:31.593Z,77.32
2022-10-05T10:28:31.606Z,77.02
2022-10-05T10:29:31.596Z,76.16
2022-10-05T10:30:33.172Z,75.74
2022-10-05T10:31:31.620Z,76.14
2022-10-05T10:32:31.555Z,75.91
2022-10-05T10:33:31.514Z,73.94
2022-10-05T10:34:31.526Z,72.70
2022-10-05T10:35:31.604Z,71.00
2022-10-05T10:36:31.509Z,71.56
2022-10-05T10:37:31.493Z,72.47
2022-10-05T10:38:31.473Z,71.53
2022-10-05T10:39:31.455Z,72.29
2022-10-05T10:40:31.458Z,71.63
2022-10-05T10:41:31.437Z,72.07
2022-10-05T10:42:31.477Z,71.52
2022-10-05T10:43:31.406Z,72.00
2022-10-05T10:44:31.394Z,71.76
2022-10-05T10:45:31.390Z,71.74
2022-10-05T10:46:31.424Z,71.39
2022-10-05T10:47:31.351Z,70.84
2022-10-05T10:48:31.354Z,71.38
2022-10-05T10:49:31.342Z,70.30
2022-10-05T10:50:31.324Z,71.24
2022-10-05T10:51:31.299Z,69.51
2022-10-05T10:52:31.289Z,69.17
2022-10-05T10:53:31.299Z,68.68
2022-10-05T10:54:31.258Z,68.01
2022-10-05T10:55:31.263Z,67.82
2022-10-05T10:56:31.271Z,68.73
2022-10-05T10:57:31.251Z,68.46
2022-10-05T10:59:31.846Z,68.45
2022-10-05T11:00:31.248Z,68.42
2022-10-05T11:01:31.246Z,68.19
2022-10-05T11:02:31.336Z,67.63
2022-10-05T11:03:31.180Z,67.52
2022-10-05T11:04:31.200Z,67.29
2022-10-05T11:05:31.199Z,66.93
2022-10-05T11:06:31.146Z,66.88
2022-10-05T11:07:31.128Z,66.81
2022-10-05T11:08:31.158Z,67.31
2022-10-05T11:09:31.110Z,67.65
2022-10-05T11:10:31.100Z,66.43
2022-10-05T11:11:31.225Z,64.95
2022-10-05T11:12:34.562Z,65.67
2022-10-05T11:13:31.061Z,65.23
2022-10-05T11:14:31.090Z,65.15
2022-10-05T11:15:31.057Z,65.46
2022-10-05T11:16:31.040Z,65.98
2022-10-05T11:17:31.015Z,66.06
2022-10-05T11:18:31.031Z,66.50
2022-10-05T11:19:40.442Z,66.66
2022-10-05T11:20:31.973Z,66.56
2022-10-05T11:21:30.990Z,67.21
2022-10-05T11:22:30.957Z,66.34
2022-10-05T11:23:34.164Z,65.83
2022-10-05T11:24:31.963Z,66.17
2022-10-05T11:25:30.927Z,66.78
2022-10-05T11:26:31.034Z,67.51
2022-10-05T11:27:30.915Z,66.60
2022-10-05T11:28:30.931Z,66.51
2022-10-05T11:29:30.875Z,66.53
2022-10-05T11:30:30.892Z,66.55
2022-10-05T11:31:30.928Z,65.55
2022-10-05T11:32:30.821Z,63.98
2022-10-05T11:33:30.823Z,64.11
2022-10-05T11:34:30.824Z,63.68
2022-10-05T11:35:30.805Z,63.13
2022-10-05T11:36:30.825Z,63.98
2022-10-05T11:37:30.805Z,63.39
2022-10-05T11:38:30.799Z,63.11
2022-10-05T11:39:30.754Z,63.42
2022-10-05T11:40:30.750Z,63.79
2022-10-05T11:41:30.768Z,62.99
2022-10-05T11:42:30.731Z,63.43
2022-10-05T11:43:30.728Z,63.73
2022-10-05T11:44:30.706Z,64.16
2022-10-05T11:45:30.778Z,63.98
2022-10-05T11:46:30.774Z,63.55
2022-10-05T11:47:30.684Z,63.75
2022-10-05T11:48:30.687Z,63.75
2022-10-05T11:49:30.637Z,63.69
2022-10-05T11:50:30.645Z,63.52
2022-10-05T11:51:30.623Z,63.81
2022-10-05T11:52:30.638Z,64.14
2022-10-05T11:53:30.618Z,64.78
2022-10-05T11:54:32.510Z,64.30
2022-10-05T11:55:31.597Z,64.52
2022-10-05T11:57:30.609Z,65.00
2022-10-05T11:58:30.532Z,64.67
2022-10-05T11:59:30.549Z,64.67
2022-10-05T12:00:30.560Z,64.87
2022-10-05T12:01:30.513Z,65.19
2022-10-05T12:02:30.521Z,64.75
2022-10-05T12:03:30.572Z,64.95
2022-10-05T12:04:30.495Z,65.05
2022-10-05T12:05:30.460Z,65.20
2022-10-05T12:06:30.460Z,65.60
2022-10-05T12:07:30.446Z,65.85
2022-10-05T12:08:30.467Z,65.45
2022-10-05T12:09:30.409Z,65.19
2022-10-05T12:10:30.460Z,65.18
2022-10-05T12:11:30.413Z,65.33
2022-10-05T12:12:30.377Z,65.60
2022-10-05T12:13:30.388Z,65.52
2022-10-05T12:14:30.367Z,65.74
2022-10-05T12:15:30.371Z,65.91
2022-10-05T12:16:30.344Z,65.78
2022-10-05T12:17:30.344Z,66.02
2022-10-05T12:18:30.404Z,66.17
2022-10-05T12:19:30.311Z,66.42
2022-10-05T12:20:30.327Z,66.74
2022-10-05T12:21:30.269Z,67.27
2022-10-05T12:22:30.291Z,66.94
2022-10-05T12:23:30.288Z,67.37
2022-10-05T12:24:30.245Z,66.98
2022-10-05T12:25:30.240Z,67.37
2022-10-05T12:26:30.242Z,66.40
2022-10-05T12:27:30.285Z,66.28
2022-10-05T12:28:30.256Z,66.50
2022-10-05T12:29:30.249Z,66.75
2022-10-05T12:30:30.223Z,66.34
2022-10-05T12:31:30.215Z,66.67
2022-10-05T12:32:30.157Z,66.75
2022-10-05T12:33:30.179Z,66.95
2022-10-05T12:34:30.182Z,67.05
2022-10-05T12:35:47.370Z,67.61
2022-10-05T12:36:46.280Z,68.27
2022-10-05T12:37:31.101Z,68.07
2022-10-05T12:38:30.088Z,67.17
2022-10-05T12:39:30.139Z,66.98
2022-10-05T12:40:30.054Z,66.86
2022-10-05T12:41:30.067Z,66.86
2022-10-05T12:42:30.037Z,67.05
2022-10-05T12:43:30.103Z,67.00
2022-10-05T12:44:30.007Z,66.86
2022-10-05T12:45:30.095Z,66.86
2022-10-05T12:46:30.005Z,66.84
2022-10-05T12:47:29.985Z,67.16
2022-10-05T12:48:29.975Z,67.32
2022-10-05T12:49:30.008Z,67.82
2022-10-05T12:50:29.986Z,67.44
2022-10-05T12:51:29.939Z,67.88
2022-10-05T12:52:30.132Z,68.53
2022-10-05T12:53:29.925Z,68.30
2022-10-05T12:54:29.899Z,68.80